createdAt,value
2019-05-28T00:00:37.323Z,15.03
2019-05-28T00:03:06.335Z,14.93
2019-05-28T00:05:35.067Z,14.73
2019-05-28T00:08:03.800Z,14.00
2019-05-28T00:10:32.436Z,14.33
2019-05-28T00:13:01.037Z,13.80
2019-05-28T00:15:30.117Z,13.23
2019-05-28T00:17:58.711Z,13.80
2019-05-28T00:20:27.416Z,14.73
2019-05-28T00:22:56.054Z,14.30
2019-05-28T00:25:28.449Z,14.27
2019-05-28T00:27:54.975Z,13.90
2019-05-28T00:30:23.696Z,14.37
2019-05-28T00:32:52.291Z,15.17
2019-05-28T00:35:22.456Z,15.40
2019-05-28T00:37:51.064Z,15.60
2019-05-28T00:40:20.043Z,14.80
2019-05-28T00:42:49.033Z,13.60
2019-05-28T00:45:18.246Z,14.60
2019-05-28T00:47:46.926Z,14.43
2019-05-28T00:50:17.565Z,14.53
2019-05-28T00:52:46.194Z,14.77
2019-05-28T00:55:15.256Z,14.70
2019-05-28T00:57:46.090Z,14.20
2019-05-28T01:00:15.696Z,14.87
2019-05-28T01:02:44.336Z,14.23
2019-05-28T01:05:13.479Z,15.77
2019-05-28T01:07:42.115Z,14.97
2019-05-28T01:10:11.251Z,15.83
2019-05-28T01:12:39.883Z,15.30
2019-05-28T01:15:09.120Z,14.80
2019-05-28T01:17:38.031Z,13.77
2019-05-28T01:20:08.114Z,15.13
2019-05-28T01:22:36.823Z,14.50
2019-05-28T01:25:06.664Z,15.03
2019-05-28T01:27:35.711Z,15.23
2019-05-28T01:30:06.852Z,14.93
2019-05-28T01:32:35.487Z,16.23
2019-05-28T01:35:08.730Z,14.53
2019-05-28T01:37:37.363Z,15.27
2019-05-28T01:40:08.144Z,14.90
2019-05-28T01:42:36.910Z,14.10
2019-05-28T01:45:06.628Z,15.10
2019-05-28T01:47:35.222Z,13.53
2019-05-28T01:50:06.202Z,14.70
2019-05-28T01:52:34.875Z,13.63
2019-05-28T01:55:04.665Z,13.67
2019-05-28T01:57:33.186Z,14.27
2019-05-28T02:00:01.921Z,14.40
2019-05-28T02:02:30.585Z,14.77
2019-05-28T02:04:59.250Z,14.40
2019-05-28T02:07:28.395Z,14.23
2019-05-28T02:09:57.036Z,14.70
2019-05-28T02:12:25.647Z,14.87
2019-05-28T02:14:54.285Z,14.67
2019-05-28T02:17:23.235Z,15.20
2019-05-28T02:19:51.980Z,14.87
2019-05-28T02:22:20.619Z,15.07
2019-05-28T02:24:49.213Z,14.43
2019-05-28T02:27:17.867Z,15.03
2019-05-28T02:29:46.527Z,13.83
2019-05-28T02:32:15.235Z,14.73
2019-05-28T02:34:43.899Z,15.80
2019-05-28T02:37:12.469Z,14.30
2019-05-28T02:39:41.103Z,15.23
2019-05-28T02:42:09.780Z,15.63
2019-05-28T02:44:38.408Z,15.93
2019-05-28T02:47:07.140Z,15.47
2019-05-28T02:49:35.922Z,17.00
2019-05-28T02:52:05.249Z,15.30
2019-05-28T02:54:34.244Z,16.13
2019-05-28T02:57:03.682Z,15.93
2019-05-28T02:59:34.824Z,15.30
2019-05-28T03:02:04.355Z,16.33
2019-05-28T03:04:35.530Z,16.60
2019-05-28T03:07:04.839Z,15.90
2019-05-28T03:09:36.778Z,16.53
2019-05-28T03:12:05.692Z,15.67
2019-05-28T03:14:34.423Z,15.60
2019-05-28T03:17:05.203Z,16.90
2019-05-28T03:19:35.143Z,15.80
2019-05-28T03:22:05.858Z,15.83
2019-05-28T03:24:35.383Z,14.97
2019-05-28T03:27:04.552Z,15.83
2019-05-28T03:29:33.543Z,16.20
2019-05-28T03:32:08.124Z,16.53
2019-05-28T03:34:32.548Z,15.87
2019-05-28T03:37:02.366Z,16.00
2019-05-28T03:39:32.595Z,14.90
2019-05-28T03:42:01.431Z,14.97
2019-05-28T03:44:30.094Z,15.73
2019-05-28T03:46:58.779Z,15.97
2019-05-28T03:49:27.432Z,15.20
2019-05-28T03:51:57.764Z,14.57
2019-05-28T03:54:26.303Z,15.03
2019-05-28T03:56:55.323Z,15.07
2019-05-28T03:59:23.895Z,15.67
2019-05-28T04:01:52.819Z,15.33
2019-05-28T04:04:21.763Z,14.97
2019-05-28T04:06:50.350Z,15.53
2019-05-28T04:09:19.574Z,16.27
2019-05-28T04:11:48.460Z,17.27
2019-05-28T04:14:17.136Z,15.30
2019-05-28T04:16:46.019Z,17.20
2019-05-28T04:19:14.655Z,17.53
2019-05-28T04:21:43.323Z,17.27
2019-05-28T04:24:11.963Z,16.93
2019-05-28T04:26:40.916Z,16.63
2019-05-28T04:29:09.520Z,17.43
2019-05-28T04:31:38.115Z,16.70
2019-05-28T04:34:06.687Z,17.40
2019-05-28T04:36:35.723Z,16.80
2019-05-28T04:39:06.899Z,18.30
2019-05-28T04:41:35.491Z,17.40
2019-05-28T04:44:04.459Z,17.70
2019-05-28T04:46:33.196Z,17.10
2019-05-28T04:49:01.807Z,16.77
2019-05-28T04:51:30.444Z,16.90
2019-05-28T04:53:59.389Z,17.20
2019-05-28T04:56:28.011Z,17.27
2019-05-28T04:58:56.859Z,17.30
2019-05-28T05:01:25.490Z,18.80
2019-05-28T05:03:54.468Z,17.73
2019-05-28T05:06:23.012Z,18.07
2019-05-28T05:08:52.015Z,17.93
2019-05-28T05:11:20.663Z,18.07
2019-05-28T05:13:49.263Z,16.83
2019-05-28T05:16:17.903Z,18.57
2019-05-28T05:18:46.571Z,18.50
2019-05-28T05:21:15.235Z,18.10
2019-05-28T05:23:43.839Z,17.43
2019-05-28T05:26:12.535Z,17.43
2019-05-28T05:28:41.109Z,18.63
2019-05-28T05:31:10.092Z,18.20
2019-05-28T05:33:38.679Z,17.30
2019-05-28T05:36:07.321Z,17.73
2019-05-28T05:38:36.339Z,17.40
2019-05-28T05:41:05.068Z,18.67
2019-05-28T05:43:33.735Z,17.43
2019-05-28T05:46:02.472Z,17.73
2019-05-28T05:48:31.403Z,16.47
2019-05-28T05:51:00.273Z,16.53
2019-05-28T05:53:28.923Z,16.37
2019-05-28T05:55:57.533Z,15.80
2019-05-28T05:58:26.253Z,16.23
2019-05-28T06:00:54.851Z,14.87
2019-05-28T06:03:38.980Z,15.13
2019-05-28T06:05:54.906Z,14.90
2019-05-28T06:08:23.835Z,15.07
2019-05-28T06:10:52.539Z,13.93
2019-05-28T06:13:21.720Z,12.97
2019-05-28T06:15:50.355Z,11.97
2019-05-28T06:18:19.437Z,9.30
2019-05-28T06:20:48.141Z,11.27
2019-05-28T06:23:16.786Z,11.30
2019-05-28T06:25:45.412Z,11.83
2019-05-28T06:28:14.051Z,11.97
2019-05-28T06:30:42.798Z,11.53
2019-05-28T06:33:11.719Z,11.97
2019-05-28T06:35:40.289Z,12.10
2019-05-28T06:38:09.025Z,11.47
2019-05-28T06:40:37.618Z,10.80
2019-05-28T06:43:06.668Z,10.47
2019-05-28T06:45:35.392Z,10.60
2019-05-28T06:48:04.227Z,11.37
2019-05-28T06:50:32.935Z,11.70
2019-05-28T06:53:01.533Z,10.87
2019-05-28T06:55:30.264Z,10.90
2019-05-28T06:57:58.934Z,11.00
2019-05-28T07:00:27.676Z,9.17
2019-05-28T07:02:56.547Z,7.57
2019-05-28T07:05:26.059Z,7.80
2019-05-28T07:07:55.047Z,8.87
2019-05-28T07:10:24.447Z,9.93
2019-05-28T07:12:53.194Z,10.00
2019-05-28T07:15:21.987Z,9.47
2019-05-28T07:17:50.725Z,10.07
2019-05-28T07:20:19.760Z,10.53
2019-05-28T07:22:48.327Z,9.40
2019-05-28T07:25:17.382Z,10.03
2019-05-28T07:27:46.272Z,10.27
2019-05-28T07:30:15.280Z,8.10
2019-05-28T07:32:43.947Z,7.50
2019-05-28T07:35:13.864Z,7.03
2019-05-28T07:37:42.470Z,7.00
2019-05-28T07:40:11.548Z,7.20
2019-05-28T07:42:40.534Z,6.63
2019-05-28T07:45:09.880Z,6.60
2019-05-28T07:47:38.468Z,6.03
2019-05-28T07:50:08.798Z,6.43
2019-05-28T07:52:37.471Z,5.80
2019-05-28T07:55:06.578Z,4.97
2019-05-28T07:57:35.216Z,5.57
2019-05-28T08:00:06.242Z,5.23
2019-05-28T08:02:35.315Z,4.67
2019-05-28T08:05:06.584Z,5.23
2019-05-28T08:07:35.472Z,4.87
2019-05-28T08:10:08.311Z,4.47
2019-05-28T08:12:37.015Z,4.50
2019-05-28T08:15:06.664Z,4.27
2019-05-28T08:17:35.332Z,4.47
2019-05-28T08:20:05.455Z,4.60
2019-05-28T08:22:42.310Z,4.30
2019-05-28T08:25:23.576Z,4.47
2019-05-28T08:27:40.355Z,4.40
2019-05-28T08:30:09.060Z,4.50
2019-05-28T08:32:38.019Z,5.20
2019-05-28T08:35:07.235Z,4.60
2019-05-28T08:37:35.889Z,4.93
2019-05-28T08:40:06.420Z,4.90
2019-05-28T08:42:35.514Z,4.50
2019-05-28T08:45:06.099Z,4.83
2019-05-28T08:47:34.815Z,4.43
2019-05-28T08:50:05.242Z,4.90
2019-05-28T08:52:33.992Z,4.60
2019-05-28T08:55:02.599Z,4.40
2019-05-28T08:57:31.417Z,4.40
2019-05-28T09:00:00.116Z,4.50
2019-05-28T09:02:29.143Z,4.50
2019-05-28T09:04:57.872Z,4.67
2019-05-28T09:07:26.436Z,5.30
2019-05-28T09:09:55.440Z,6.77
2019-05-28T09:12:24.435Z,6.20
2019-05-28T09:14:56.134Z,5.60
2019-05-28T09:17:23.961Z,5.77
2019-05-28T09:19:53.151Z,6.70
2019-05-28T09:22:25.858Z,4.87
2019-05-28T09:24:52.335Z,5.77
2019-05-28T09:27:20.995Z,5.40
2019-05-28T09:29:49.935Z,5.50
2019-05-28T09:32:18.619Z,5.40
2019-05-28T09:34:47.619Z,5.07
2019-05-28T09:37:16.179Z,5.27
2019-05-28T09:39:44.795Z,4.80
2019-05-28T09:42:13.671Z,5.40
2019-05-28T09:44:42.574Z,4.58
2019-05-28T09:47:11.163Z,5.05
2019-05-28T09:49:40.141Z,5.85
2019-05-28T09:52:09.139Z,5.50
2019-05-28T09:54:37.875Z,5.25
2019-05-28T09:57:06.846Z,5.65
2019-05-28T09:59:41.494Z,5.80
2019-05-28T10:02:06.260Z,5.55
2019-05-28T10:04:47.300Z,5.30
2019-05-28T10:07:05.477Z,5.67
2019-05-28T10:09:34.543Z,5.40
2019-05-28T10:12:03.189Z,6.40
2019-05-28T10:14:31.882Z,6.40
2019-05-28T10:17:00.553Z,7.08
2019-05-28T10:19:29.462Z,6.90
2019-05-28T10:21:58.268Z,7.50
2019-05-28T10:24:27.160Z,8.60
2019-05-28T10:26:55.891Z,9.53
2019-05-28T10:29:24.842Z,12.33
2019-05-28T10:31:53.834Z,10.07
2019-05-28T10:34:22.494Z,9.80
2019-05-28T10:36:51.096Z,9.93
2019-05-28T10:39:19.732Z,8.47
2019-05-28T10:41:48.388Z,7.37
2019-05-28T10:44:17.123Z,7.90
2019-05-28T10:46:45.896Z,8.33
2019-05-28T10:49:14.841Z,8.18
2019-05-28T10:51:43.837Z,8.25
2019-05-28T10:54:12.836Z,7.53
2019-05-28T10:56:41.426Z,8.00
2019-05-28T10:59:09.989Z,7.40
2019-05-28T11:01:38.661Z,7.43
2019-05-28T11:04:07.659Z,8.57
2019-05-28T11:06:50.905Z,7.90
2019-05-28T11:09:08.938Z,8.20
2019-05-28T11:11:37.691Z,7.50
2019-05-28T11:14:07.111Z,7.30
2019-05-28T11:16:35.716Z,7.60
2019-05-28T11:19:05.200Z,6.83
2019-05-28T11:21:34.192Z,6.43
2019-05-28T11:24:02.828Z,6.50
2019-05-28T11:26:31.873Z,6.20
2019-05-28T11:29:00.509Z,5.20
2019-05-28T11:31:30.792Z,3.37
2019-05-28T11:33:59.315Z,3.60
2019-05-28T11:36:28.287Z,2.77
2019-05-28T11:38:56.923Z,2.43
2019-05-28T11:41:41.010Z,1.60
2019-05-28T11:43:56.566Z,1.83
2019-05-28T11:46:25.231Z,1.80
2019-05-28T11:48:53.912Z,1.53
2019-05-28T11:51:22.926Z,1.47
2019-05-28T11:53:51.807Z,1.63
2019-05-28T11:56:20.411Z,1.50
2019-05-28T11:58:49.284Z,1.53
2019-05-28T12:01:33.028Z,1.40
2019-05-28T12:03:48.347Z,1.50
2019-05-28T12:06:16.957Z,1.47
2019-05-28T12:08:46.083Z,1.40
2019-05-28T12:11:14.912Z,1.17
2019-05-28T12:13:43.503Z,1.20
2019-05-28T12:16:12.338Z,1.27
2019-05-28T12:18:41.172Z,1.20
2019-05-28T12:21:09.898Z,1.20
2019-05-28T12:23:38.801Z,1.07
2019-05-28T12:26:07.423Z,1.30
2019-05-28T12:28:37.983Z,1.20
2019-05-28T12:31:06.407Z,0.90
2019-05-28T12:33:35.071Z,0.97
2019-05-28T12:36:03.836Z,0.90
2019-05-28T12:38:32.423Z,1.10
2019-05-28T12:41:01.084Z,1.37
2019-05-28T12:43:29.784Z,1.10
2019-05-28T12:45:58.395Z,0.90
2019-05-28T12:48:27.045Z,1.40
2019-05-28T12:50:55.972Z,1.17
2019-05-28T12:53:24.765Z,1.10
2019-05-28T12:55:53.858Z,1.10
2019-05-28T12:58:40.451Z,0.90
2019-05-28T13:00:53.582Z,1.10
2019-05-28T13:03:22.582Z,1.10
2019-05-28T13:05:51.315Z,1.10
2019-05-28T13:08:20.263Z,1.20
2019-05-28T13:10:48.820Z,1.10
2019-05-28T13:13:17.479Z,1.17
2019-05-28T13:15:46.412Z,1.10
2019-05-28T13:18:15.330Z,1.00
2019-05-28T13:20:47.742Z,1.00
2019-05-28T13:23:14.126Z,1.13
2019-05-28T13:25:43.507Z,0.83
2019-05-28T13:28:12.235Z,1.10
2019-05-28T13:30:40.864Z,0.90
2019-05-28T13:33:09.992Z,1.10
2019-05-28T13:35:38.977Z,1.10
2019-05-28T13:38:25.531Z,1.17
2019-05-28T13:40:38.699Z,1.17
2019-05-28T13:43:07.364Z,1.07
2019-05-28T13:45:36.013Z,1.30
2019-05-28T13:48:05.232Z,1.30
2019-05-28T13:50:33.840Z,1.07
2019-05-28T13:53:02.751Z,1.20
2019-05-28T13:55:31.577Z,1.60
2019-05-28T13:58:00.306Z,1.30
2019-05-28T14:00:30.935Z,1.40
2019-05-28T14:02:59.568Z,1.27
2019-05-28T14:05:28.617Z,1.50
2019-05-28T14:07:57.275Z,1.20
2019-05-28T14:10:27.767Z,1.20
2019-05-28T14:12:56.554Z,1.50
2019-05-28T14:15:25.725Z,1.70
2019-05-28T14:17:54.607Z,1.40
2019-05-28T14:20:23.415Z,1.33
2019-05-28T14:22:52.356Z,1.27
2019-05-28T14:25:20.998Z,1.20
2019-05-28T14:27:49.963Z,1.03
2019-05-28T14:30:20.900Z,1.10
2019-05-28T14:32:49.561Z,1.10
2019-05-28T14:35:18.563Z,1.10
2019-05-28T14:37:47.184Z,1.20
2019-05-28T14:40:16.384Z,1.23
2019-05-28T14:42:45.043Z,1.20
2019-05-28T14:45:14.359Z,0.90
2019-05-28T14:47:42.899Z,1.00
2019-05-28T14:50:12.144Z,1.10
2019-05-28T14:52:40.799Z,1.17
2019-05-28T14:55:11.363Z,1.20
2019-05-28T14:57:40.840Z,1.30
2019-05-28T15:00:11.269Z,1.10
2019-05-28T15:02:40.037Z,1.10
2019-05-28T15:05:08.984Z,1.10
2019-05-28T15:07:37.859Z,1.10
2019-05-28T15:10:08.659Z,1.10
2019-05-28T15:12:37.351Z,1.20
2019-05-28T15:15:09.909Z,1.10
2019-05-28T15:17:39.025Z,0.93
2019-05-28T15:20:09.697Z,1.10
2019-05-28T15:22:38.751Z,0.90
2019-05-28T15:25:08.147Z,1.10
2019-05-28T15:27:36.810Z,1.00
2019-05-28T15:30:07.597Z,1.20
2019-05-28T15:32:36.668Z,1.10
2019-05-28T15:35:09.241Z,1.07
2019-05-28T15:37:38.242Z,1.10
2019-05-28T15:40:08.591Z,1.00
2019-05-28T15:42:37.316Z,1.10
2019-05-28T15:45:10.212Z,1.10
2019-05-28T15:47:43.770Z,1.17
2019-05-28T15:50:11.938Z,1.27
2019-05-28T15:52:40.991Z,0.93
2019-05-28T15:55:10.219Z,0.90
2019-05-28T15:57:39.203Z,0.90
2019-05-28T16:00:20.131Z,0.80
2019-05-28T16:02:48.895Z,0.90
2019-05-28T16:05:17.739Z,1.00
2019-05-28T16:07:46.724Z,0.80
2019-05-28T16:10:16.023Z,0.80
2019-05-28T16:12:45.599Z,0.70
2019-05-28T16:15:15.241Z,0.90
2019-05-28T16:17:43.802Z,0.80
2019-05-28T16:20:12.928Z,0.77
2019-05-28T16:22:41.503Z,0.90
2019-05-28T16:25:12.623Z,0.77
2019-05-28T16:27:41.248Z,0.80
2019-05-28T16:30:12.449Z,0.90
2019-05-28T16:32:41.109Z,0.90
2019-05-28T16:35:09.912Z,0.83
2019-05-28T16:37:38.614Z,0.70
2019-05-28T16:40:14.768Z,1.00
2019-05-28T16:42:38.570Z,0.90
2019-05-28T16:45:08.275Z,1.17
2019-05-28T16:47:36.927Z,1.50
2019-05-28T16:50:06.743Z,1.03
2019-05-28T16:52:35.385Z,0.80
2019-05-28T16:55:09.215Z,0.90
2019-05-28T16:57:37.879Z,1.00
2019-05-28T17:00:07.578Z,0.80
2019-05-28T17:02:36.362Z,1.00
2019-05-28T17:05:08.019Z,0.73
2019-05-28T17:07:36.896Z,0.80
2019-05-28T17:10:07.033Z,0.87
2019-05-28T17:12:35.776Z,0.80
2019-05-28T17:15:07.171Z,0.87
2019-05-28T17:17:36.125Z,0.93
2019-05-28T17:20:11.231Z,0.93
2019-05-28T17:22:39.864Z,0.93
2019-05-28T17:25:11.774Z,1.00
2019-05-28T17:27:40.064Z,1.20
2019-05-28T17:30:18.876Z,1.00
2019-05-28T17:32:39.591Z,0.90
2019-05-28T17:35:08.892Z,1.10
2019-05-28T17:37:37.552Z,0.90
2019-05-28T17:40:06.695Z,0.90
2019-05-28T17:42:35.611Z,1.10
2019-05-28T17:45:06.015Z,0.90
2019-05-28T17:47:43.173Z,0.80
2019-05-28T17:50:08.367Z,0.90
2019-05-28T17:52:37.104Z,0.83
2019-05-28T17:55:06.392Z,1.10
2019-05-28T17:57:35.149Z,1.03
2019-05-28T18:00:05.425Z,2.90
2019-05-28T18:02:34.005Z,1.10
2019-05-28T18:05:02.687Z,1.00
2019-05-28T18:07:31.647Z,0.90
2019-05-28T18:10:00.642Z,1.57
2019-05-28T18:12:29.629Z,1.10
2019-05-28T18:14:58.187Z,1.13
2019-05-28T18:17:26.775Z,0.67
2019-05-28T18:19:55.344Z,0.93
2019-05-28T18:22:23.896Z,1.03
2019-05-28T18:24:52.888Z,1.10
2019-05-28T18:27:21.428Z,1.10
2019-05-28T18:29:50.091Z,1.00
2019-05-28T18:32:18.656Z,1.17
2019-05-28T18:34:47.356Z,1.20
2019-05-28T18:37:16.385Z,1.00
2019-05-28T18:39:44.971Z,1.10
2019-05-28T18:42:13.951Z,1.30
2019-05-28T18:44:42.604Z,1.50
2019-05-28T18:47:11.375Z,1.50
2019-05-28T18:49:40.334Z,1.33
2019-05-28T18:52:08.886Z,1.23
2019-05-28T18:54:37.476Z,1.40
2019-05-28T18:57:06.479Z,1.50
2019-05-28T18:59:35.630Z,1.40
2019-05-28T19:02:04.414Z,1.40
2019-05-28T19:04:33.051Z,1.57
2019-05-28T19:07:01.743Z,1.80
2019-05-28T19:09:30.639Z,1.60
2019-05-28T19:11:59.620Z,2.00
2019-05-28T19:14:28.209Z,2.50
2019-05-28T19:16:57.170Z,2.13
2019-05-28T19:19:25.923Z,3.70
2019-05-28T19:21:54.911Z,2.50
2019-05-28T19:24:23.510Z,2.20
2019-05-28T19:26:52.100Z,2.37
2019-05-28T19:29:20.698Z,2.23
2019-05-28T19:31:49.436Z,2.37
2019-05-28T19:34:18.126Z,2.53
2019-05-28T19:36:47.128Z,2.40
2019-05-28T19:39:16.127Z,2.10
2019-05-28T19:41:53.850Z,2.50
2019-05-28T19:44:15.492Z,2.30
2019-05-28T19:46:44.061Z,2.30
2019-05-28T19:49:12.635Z,2.20
2019-05-28T19:51:41.195Z,2.30
2019-05-28T19:54:09.873Z,2.37
2019-05-28T19:56:38.440Z,2.53
2019-05-28T19:59:06.992Z,2.63
2019-05-28T20:01:35.653Z,2.30
2019-05-28T20:04:04.492Z,2.40
2019-05-28T20:06:33.144Z,2.60
2019-05-28T20:09:01.704Z,2.73
2019-05-28T20:11:30.719Z,2.10
2019-05-28T20:13:59.281Z,2.40
2019-05-28T20:16:27.839Z,2.60
2019-05-28T20:18:56.431Z,2.37
2019-05-28T20:21:25.136Z,2.73
2019-05-28T20:23:54.525Z,2.70
2019-05-28T20:26:23.235Z,2.87
2019-05-28T20:29:07.375Z,2.90
2019-05-28T20:31:23.053Z,3.43
2019-05-28T20:33:51.626Z,3.27
2019-05-28T20:36:20.639Z,2.90
2019-05-28T20:38:49.271Z,2.93
2019-05-28T20:41:17.931Z,2.70
2019-05-28T20:43:46.675Z,3.00
2019-05-28T20:46:15.592Z,3.00
2019-05-28T20:48:44.607Z,3.03
2019-05-28T20:51:20.211Z,3.00
2019-05-28T20:53:43.498Z,3.10
2019-05-28T20:56:12.467Z,3.93
2019-05-28T20:58:41.280Z,2.70
2019-05-28T21:01:10.373Z,3.13
2019-05-28T21:03:39.067Z,3.20
2019-05-28T21:06:07.660Z,2.70
2019-05-28T21:08:36.591Z,3.57
2019-05-28T21:11:05.175Z,2.90
2019-05-28T21:13:34.098Z,2.80
2019-05-28T21:16:03.087Z,2.90
2019-05-28T21:18:31.679Z,3.10
2019-05-28T21:21:00.564Z,3.40
2019-05-28T21:23:29.551Z,3.30
2019-05-28T21:25:58.374Z,3.00
2019-05-28T21:28:27.539Z,4.37
2019-05-28T21:30:56.786Z,3.87
2019-05-28T21:33:25.511Z,4.57
2019-05-28T21:35:55.289Z,4.90
2019-05-28T21:38:23.906Z,5.40
2019-05-28T21:40:53.507Z,5.17
2019-05-28T21:43:22.725Z,5.33
2019-05-28T21:45:51.961Z,5.60
2019-05-28T21:48:20.846Z,6.40
2019-05-28T21:50:49.630Z,6.03
2019-05-28T21:53:18.331Z,6.73
2019-05-28T21:55:46.996Z,6.97
2019-05-28T21:58:16.900Z,7.53
2019-05-28T22:01:04.124Z,6.80
2019-05-28T22:03:32.925Z,8.03
2019-05-28T22:06:01.594Z,8.53
2019-05-28T22:08:30.272Z,7.53
2019-05-28T22:10:59.657Z,7.40
2019-05-28T22:13:28.652Z,8.70
2019-05-28T22:15:58.025Z,7.93
2019-05-28T22:18:27.088Z,8.40
2019-05-28T22:20:56.677Z,8.40
2019-05-28T22:23:25.328Z,8.13
2019-05-28T22:25:53.879Z,8.37
2019-05-28T22:28:22.558Z,8.57
2019-05-28T22:30:51.604Z,8.00
2019-05-28T22:33:20.331Z,8.07
2019-05-28T22:35:48.919Z,7.73
2019-05-28T22:38:17.650Z,8.27
2019-05-28T22:40:46.288Z,7.93
2019-05-28T22:43:28.869Z,7.70
2019-05-28T22:45:45.627Z,8.23
2019-05-28T22:48:17.175Z,8.60
2019-05-28T22:50:44.807Z,7.83
2019-05-28T22:53:13.572Z,7.90
2019-05-28T22:55:42.548Z,7.90
2019-05-28T22:58:11.288Z,8.10
2019-05-28T23:00:39.893Z,7.23
2019-05-28T23:03:09.234Z,6.97
2019-05-28T23:05:37.999Z,6.87
2019-05-28T23:08:07.809Z,6.93
2019-05-28T23:10:36.658Z,6.77
2019-05-28T23:13:05.595Z,6.63
2019-05-28T23:15:34.159Z,6.73
2019-05-28T23:18:02.867Z,5.80
2019-05-28T23:20:31.759Z,5.90
2019-05-28T23:23:00.962Z,6.60
2019-05-28T23:25:29.782Z,6.57
2019-05-28T23:27:58.646Z,6.43
2019-05-28T23:30:27.279Z,6.70
2019-05-28T23:32:55.864Z,6.27
2019-05-28T23:35:24.589Z,6.40
2019-05-28T23:37:53.154Z,6.70
2019-05-28T23:40:21.952Z,6.63
2019-05-28T23:42:50.639Z,6.40
2019-05-28T23:45:19.469Z,7.23
2019-05-28T23:47:48.091Z,6.27
2019-05-28T23:50:18.284Z,6.37
2019-05-28T23:52:46.976Z,6.17
2019-05-28T23:55:15.703Z,6.40
2019-05-28T23:57:44.596Z,6.13
